createdAt,value
2018-07-25T00:00:13.128Z,13.30
2018-07-25T00:02:41.319Z,13.10
2018-07-25T00:05:09.558Z,13.03
2018-07-25T00:07:37.766Z,12.90
2018-07-25T00:10:07.941Z,12.20
2018-07-25T00:12:36.147Z,13.93
2018-07-25T00:15:04.579Z,13.37
2018-07-25T00:17:32.800Z,14.00
2018-07-25T00:20:01.074Z,12.87
2018-07-25T00:22:29.492Z,11.93
2018-07-25T00:24:57.707Z,14.20
2018-07-25T00:27:25.913Z,13.90
2018-07-25T00:29:54.129Z,12.60
2018-07-25T00:32:22.348Z,18.10
2018-07-25T00:34:50.571Z,15.93
2018-07-25T00:37:18.766Z,13.40
2018-07-25T00:39:46.972Z,13.30
2018-07-25T00:42:15.189Z,13.90
2018-07-25T00:44:43.401Z,12.50
2018-07-25T00:47:11.609Z,12.30
2018-07-25T00:49:39.827Z,13.90
2018-07-25T00:52:08.047Z,15.20
2018-07-25T00:54:36.252Z,13.50
2018-07-25T00:57:04.482Z,12.53
2018-07-25T00:59:32.699Z,13.50
2018-07-25T01:02:00.920Z,14.50
2018-07-25T01:04:29.126Z,14.20
2018-07-25T01:06:57.332Z,13.60
2018-07-25T01:09:25.545Z,11.80
2018-07-25T01:11:53.769Z,13.47
2018-07-25T01:14:21.977Z,14.10
2018-07-25T01:16:50.208Z,13.33
2018-07-25T01:19:18.435Z,13.90
2018-07-25T01:21:46.668Z,12.40
2018-07-25T01:24:14.883Z,14.73
2018-07-25T01:26:43.100Z,14.00
2018-07-25T01:29:11.311Z,13.33
2018-07-25T01:31:39.534Z,13.60
2018-07-25T01:34:07.762Z,13.40
2018-07-25T01:36:35.982Z,12.60
2018-07-25T01:39:05.832Z,13.37
2018-07-25T01:41:34.049Z,13.57
2018-07-25T01:44:02.266Z,13.50
2018-07-25T01:46:30.489Z,13.03
2018-07-25T01:48:58.701Z,13.90
2018-07-25T01:51:26.932Z,13.87
2018-07-25T01:53:55.154Z,14.00
2018-07-25T01:56:23.369Z,16.23
2018-07-25T01:58:51.581Z,12.87
2018-07-25T02:01:19.888Z,13.17
2018-07-25T02:03:48.051Z,13.60
2018-07-25T02:06:16.265Z,13.50
2018-07-25T02:08:44.480Z,13.40
2018-07-25T02:11:12.684Z,13.50
2018-07-25T02:13:40.894Z,13.63
2018-07-25T02:16:09.109Z,13.27
2018-07-25T02:18:37.340Z,13.83
2018-07-25T02:21:05.662Z,15.80
2018-07-25T02:23:33.887Z,12.83
2018-07-25T02:26:02.089Z,18.00
2018-07-25T02:28:30.302Z,13.80
2018-07-25T02:30:58.498Z,14.13
2018-07-25T02:33:32.147Z,13.83
2018-07-25T02:36:00.346Z,14.40
2018-07-25T02:38:28.544Z,14.80
2018-07-25T02:40:56.737Z,13.73
2018-07-25T02:43:24.949Z,13.70
2018-07-25T02:45:53.157Z,13.57
2018-07-25T02:48:21.361Z,13.47
2018-07-25T02:50:49.562Z,13.90
2018-07-25T02:53:17.783Z,13.70
2018-07-25T02:55:45.980Z,13.63
2018-07-25T02:58:14.187Z,13.00
2018-07-25T03:00:42.431Z,15.07
2018-07-25T03:03:10.785Z,15.20
2018-07-25T03:05:39.072Z,15.20
2018-07-25T03:08:07.666Z,14.83
2018-07-25T03:10:35.869Z,14.33
2018-07-25T03:13:04.097Z,13.90
2018-07-25T03:15:32.310Z,15.00
2018-07-25T03:20:35.028Z,15.50
2018-07-25T03:23:03.263Z,14.90
2018-07-25T03:25:31.475Z,15.30
2018-07-25T03:27:59.696Z,15.80
2018-07-25T03:30:27.904Z,15.53
2018-07-25T03:32:56.136Z,19.50
2018-07-25T03:35:24.344Z,15.57
2018-07-25T03:37:52.547Z,17.10
2018-07-25T03:40:20.765Z,16.20
2018-07-25T03:42:48.973Z,15.73
2018-07-25T03:45:17.182Z,15.47
2018-07-25T03:47:45.398Z,15.17
2018-07-25T03:50:13.610Z,16.33
2018-07-25T03:52:41.819Z,14.50
2018-07-25T03:55:10.038Z,15.30
2018-07-25T03:57:38.250Z,16.20
2018-07-25T04:00:06.482Z,16.20
2018-07-25T04:02:34.697Z,16.50
2018-07-25T04:05:02.916Z,15.80
2018-07-25T04:07:31.119Z,15.33
2018-07-25T04:09:59.328Z,15.73
2018-07-25T04:12:27.534Z,15.90
2018-07-25T04:14:55.751Z,15.83
2018-07-25T04:17:23.983Z,16.53
2018-07-25T04:19:52.199Z,16.90
2018-07-25T04:22:20.402Z,15.43
2018-07-25T04:24:48.704Z,16.13
2018-07-25T04:27:16.850Z,15.73
2018-07-25T04:29:45.069Z,18.13
2018-07-25T04:32:13.282Z,17.23
2018-07-25T04:34:41.713Z,16.93
2018-07-25T04:37:09.884Z,16.67
2018-07-25T04:39:38.090Z,15.83
2018-07-25T04:42:06.323Z,16.20
2018-07-25T04:44:34.538Z,15.37
2018-07-25T04:47:02.759Z,15.73
2018-07-25T04:49:30.986Z,17.57
2018-07-25T04:51:59.278Z,18.40
2018-07-25T04:54:27.481Z,19.47
2018-07-25T04:56:55.720Z,18.40
2018-07-25T04:59:23.966Z,18.60
2018-07-25T05:01:52.208Z,18.80
2018-07-25T05:04:20.425Z,19.20
2018-07-25T05:06:48.641Z,17.23
2018-07-25T05:09:16.889Z,17.30
2018-07-25T05:11:45.077Z,17.57
2018-07-25T05:14:13.270Z,17.00
2018-07-25T05:16:41.489Z,15.70
2018-07-25T05:19:09.704Z,16.60
2018-07-25T05:21:37.942Z,17.43
2018-07-25T05:24:06.149Z,17.20
2018-07-25T05:26:34.373Z,16.90
2018-07-25T05:29:02.639Z,17.03
2018-07-25T05:31:30.856Z,16.17
2018-07-25T05:33:59.056Z,17.43
2018-07-25T05:36:27.276Z,16.77
2018-07-25T05:38:55.469Z,16.87
2018-07-25T05:41:23.680Z,18.63
2018-07-25T05:43:51.964Z,16.33
2018-07-25T05:46:20.362Z,16.47
2018-07-25T05:48:48.615Z,18.03
2018-07-25T05:51:16.834Z,14.83
2018-07-25T05:53:46.209Z,17.03
2018-07-25T05:56:14.462Z,15.40
2018-07-25T05:58:42.713Z,18.00
2018-07-25T06:01:11.069Z,17.60
2018-07-25T06:03:42.836Z,16.63
2018-07-25T06:06:11.309Z,16.63
2018-07-25T06:08:39.498Z,17.23
2018-07-25T06:11:07.987Z,18.50
2018-07-25T06:13:36.997Z,17.70
2018-07-25T06:16:05.491Z,16.80
2018-07-25T06:18:33.721Z,17.07
2018-07-25T06:21:01.973Z,17.43
2018-07-25T06:23:30.206Z,20.77
2018-07-25T06:25:58.563Z,18.47
2018-07-25T06:28:26.753Z,16.97
2018-07-25T06:30:55.000Z,17.00
2018-07-25T06:33:23.251Z,17.03
2018-07-25T06:35:51.469Z,17.63
2018-07-25T06:38:19.724Z,18.33
2018-07-25T06:40:47.920Z,17.00
2018-07-25T06:43:16.142Z,18.40
2018-07-25T06:45:44.354Z,18.67
2018-07-25T06:48:12.593Z,17.93
2018-07-25T06:50:40.806Z,16.73
2018-07-25T06:53:09.309Z,18.17
2018-07-25T06:55:37.738Z,18.67
2018-07-25T07:00:43.229Z,15.90
2018-07-25T07:03:11.437Z,17.00
2018-07-25T07:05:39.646Z,16.50
2018-07-25T07:08:07.898Z,18.00
2018-07-25T07:10:36.111Z,16.90
2018-07-25T07:13:04.322Z,15.93
2018-07-25T07:15:32.528Z,18.03
2018-07-25T07:18:00.730Z,16.50
2018-07-25T07:20:28.954Z,16.90
2018-07-25T07:22:57.178Z,17.30
2018-07-25T07:25:25.387Z,18.47
2018-07-25T07:27:53.878Z,15.40
2018-07-25T07:30:22.188Z,16.87
2018-07-25T07:32:50.408Z,16.80
2018-07-25T07:35:18.627Z,17.83
2018-07-25T07:37:46.860Z,15.20
2018-07-25T07:40:15.075Z,16.80
2018-07-25T07:42:43.287Z,14.47
2018-07-25T07:45:11.490Z,15.53
2018-07-25T07:47:39.735Z,16.53
2018-07-25T07:50:07.957Z,15.47
2018-07-25T07:52:36.181Z,16.33
2018-07-25T07:55:04.690Z,15.73
2018-07-25T07:57:32.929Z,16.40
2018-07-25T08:00:01.206Z,15.20
2018-07-25T08:02:29.434Z,16.83
2018-07-25T08:04:57.709Z,15.27
2018-07-25T08:07:25.883Z,16.03
2018-07-25T08:09:54.104Z,16.17
2018-07-25T08:12:22.304Z,16.13
2018-07-25T08:14:50.537Z,17.53
2018-07-25T08:17:18.754Z,18.07
2018-07-25T08:19:46.990Z,18.77
2018-07-25T08:22:15.244Z,18.60
2018-07-25T08:24:43.470Z,17.83
2018-07-25T08:27:11.672Z,19.70
2018-07-25T08:29:39.885Z,18.80
2018-07-25T08:32:08.126Z,17.27
2018-07-25T08:34:36.414Z,20.20
2018-07-25T08:37:04.573Z,17.53
2018-07-25T08:39:39.218Z,15.53
2018-07-25T08:42:07.453Z,17.37
2018-07-25T08:44:35.681Z,19.27
2018-07-25T08:47:03.881Z,17.57
2018-07-25T08:49:32.121Z,18.93
2018-07-25T08:52:00.341Z,18.33
2018-07-25T08:54:28.575Z,16.80
2018-07-25T08:56:56.778Z,18.73
2018-07-25T08:59:24.991Z,18.03
2018-07-25T09:01:53.277Z,16.90
2018-07-25T09:04:21.422Z,18.20
2018-07-25T09:06:49.626Z,17.40
2018-07-25T09:09:17.831Z,18.60
2018-07-25T09:11:46.047Z,17.40
2018-07-25T09:14:14.257Z,18.63
2018-07-25T09:16:42.526Z,18.60
2018-07-25T09:19:10.704Z,19.03
2018-07-25T09:21:38.922Z,18.47
2018-07-25T09:24:07.130Z,18.30
2018-07-25T09:26:41.609Z,17.90
2018-07-25T09:29:09.842Z,18.77
2018-07-25T09:31:38.052Z,18.77
2018-07-25T09:34:06.328Z,17.73
2018-07-25T09:36:34.525Z,17.87
2018-07-25T09:39:02.755Z,19.07
2018-07-25T09:41:30.986Z,18.27
2018-07-25T09:43:59.220Z,17.80
2018-07-25T09:46:27.455Z,16.90
2018-07-25T09:48:55.661Z,19.87
2018-07-25T09:51:23.896Z,18.23
2018-07-25T09:53:52.103Z,17.20
2018-07-25T09:56:20.325Z,18.37
2018-07-25T09:58:48.555Z,17.83
2018-07-25T10:01:16.758Z,16.70
2018-07-25T10:03:44.987Z,17.57
2018-07-25T10:06:13.216Z,17.40
2018-07-25T10:08:41.421Z,17.57
2018-07-25T10:11:09.655Z,17.50
2018-07-25T10:13:37.845Z,17.50
2018-07-25T10:16:06.070Z,15.80
2018-07-25T10:18:34.284Z,17.07
2018-07-25T10:21:02.509Z,17.37
2018-07-25T10:23:30.833Z,16.43
2018-07-25T10:25:58.997Z,14.77
2018-07-25T10:28:27.192Z,16.80
2018-07-25T10:30:55.418Z,17.10
2018-07-25T10:33:23.622Z,16.07
2018-07-25T10:35:51.841Z,13.13
2018-07-25T10:38:20.046Z,12.10
2018-07-25T10:40:48.253Z,12.90
2018-07-25T10:43:17.385Z,12.70
2018-07-25T10:45:45.649Z,11.70
2018-07-25T10:48:13.847Z,11.60
2018-07-25T10:50:42.065Z,12.20
2018-07-25T10:53:10.274Z,15.90
2018-07-25T10:55:38.513Z,12.60
2018-07-25T10:58:06.734Z,12.40
2018-07-25T11:00:34.994Z,10.97
2018-07-25T11:03:03.197Z,11.27
2018-07-25T11:05:31.416Z,11.53
2018-07-25T11:07:59.633Z,11.50
2018-07-25T11:10:27.852Z,11.33
2018-07-25T11:12:56.067Z,11.43
2018-07-25T11:15:24.470Z,11.47
2018-07-25T11:17:53.056Z,12.03
2018-07-25T11:20:21.429Z,12.03
2018-07-25T11:22:49.656Z,10.57
2018-07-25T11:25:17.880Z,12.10
2018-07-25T11:27:46.109Z,11.93
2018-07-25T11:30:14.312Z,12.40
2018-07-25T11:32:43.419Z,11.63
2018-07-25T11:35:11.602Z,12.70
2018-07-25T11:37:39.957Z,12.17
2018-07-25T11:40:08.509Z,12.57
2018-07-25T11:42:37.058Z,12.03
2018-07-25T11:45:05.360Z,12.20
2018-07-25T11:47:33.586Z,11.87
2018-07-25T11:50:01.845Z,12.43
2018-07-25T11:52:30.017Z,11.57
2018-07-25T11:54:58.360Z,12.47
2018-07-25T11:57:26.606Z,12.60
2018-07-25T11:59:54.822Z,12.37
2018-07-25T12:02:23.186Z,12.63
2018-07-25T12:04:51.398Z,12.40
2018-07-25T12:07:19.625Z,12.70
2018-07-25T12:09:47.850Z,13.10
2018-07-25T12:12:16.091Z,11.67
2018-07-25T12:14:44.333Z,11.70
2018-07-25T12:17:12.566Z,12.17
2018-07-25T12:19:40.822Z,12.80
2018-07-25T12:22:09.058Z,11.40
2018-07-25T12:24:37.301Z,12.87
2018-07-25T12:27:05.518Z,11.97
2018-07-25T12:29:33.746Z,12.60
2018-07-25T12:32:02.006Z,11.53
2018-07-25T12:34:30.226Z,12.47
2018-07-25T12:36:58.462Z,12.70
2018-07-25T12:39:26.709Z,12.13
2018-07-25T12:41:54.926Z,12.60
2018-07-25T12:44:23.164Z,11.90
2018-07-25T12:46:51.388Z,12.03
2018-07-25T12:49:19.638Z,10.80
2018-07-25T12:51:47.875Z,10.50
2018-07-25T12:54:16.239Z,10.40
2018-07-25T12:56:44.374Z,9.30
2018-07-25T12:59:12.605Z,8.77
2018-07-25T13:01:40.874Z,9.90
2018-07-25T13:04:09.125Z,11.33
2018-07-25T13:06:37.338Z,10.90
2018-07-25T13:09:07.958Z,13.50
2018-07-25T13:11:36.895Z,13.03
2018-07-25T13:14:05.141Z,12.97
2018-07-25T13:16:33.406Z,13.90
2018-07-25T13:19:01.646Z,13.80
2018-07-25T13:21:29.868Z,12.37
2018-07-25T13:23:58.126Z,12.50
2018-07-25T13:26:26.341Z,12.50
2018-07-25T13:28:54.651Z,11.53
2018-07-25T13:31:22.813Z,11.73
2018-07-25T13:33:51.087Z,8.60
2018-07-25T13:36:19.315Z,9.70
2018-07-25T13:38:47.562Z,10.00
2018-07-25T13:41:15.815Z,9.80
2018-07-25T13:43:44.059Z,9.97
2018-07-25T13:46:12.375Z,11.43
2018-07-25T13:48:40.534Z,10.00
2018-07-25T13:51:08.775Z,11.20
2018-07-25T13:53:37.007Z,10.37
2018-07-25T13:56:05.603Z,10.30
2018-07-25T13:58:33.846Z,11.00
2018-07-25T14:01:02.069Z,10.20
2018-07-25T14:03:30.699Z,10.77
2018-07-25T14:05:58.962Z,11.00
2018-07-25T14:08:27.169Z,10.70
2018-07-25T14:10:55.529Z,11.63
2018-07-25T14:13:23.746Z,12.50
2018-07-25T14:15:52.026Z,16.63
2018-07-25T14:18:20.248Z,10.00
2018-07-25T14:20:48.744Z,11.70
2018-07-25T14:23:17.182Z,10.17
2018-07-25T14:25:45.467Z,10.20
2018-07-25T14:28:13.960Z,10.13
2018-07-25T14:30:42.263Z,10.23
2018-07-25T14:33:10.420Z,9.80
2018-07-25T14:35:38.659Z,10.67
2018-07-25T14:38:07.157Z,10.47
2018-07-25T14:40:35.383Z,10.47
2018-07-25T14:43:03.772Z,10.70
2018-07-25T14:45:32.008Z,11.00
2018-07-25T14:48:00.231Z,10.70
2018-07-25T14:50:28.463Z,9.63
2018-07-25T14:52:56.695Z,11.57
2018-07-25T14:55:24.972Z,9.90
2018-07-25T14:57:53.216Z,10.90
2018-07-25T15:00:21.463Z,11.20
2018-07-25T15:02:50.542Z,10.97
2018-07-25T15:05:19.243Z,10.67
2018-07-25T15:07:48.203Z,10.23
2018-07-25T15:10:16.419Z,9.90
2018-07-25T15:12:49.934Z,10.33
2018-07-25T15:15:18.183Z,10.20
2018-07-25T15:17:46.421Z,11.60
2018-07-25T15:20:14.610Z,10.20
2018-07-25T15:22:42.856Z,12.63
2018-07-25T15:25:11.067Z,11.03
2018-07-25T15:27:39.282Z,11.30
2018-07-25T15:30:08.673Z,11.90
2018-07-25T15:32:36.997Z,11.27
2018-07-25T15:35:05.419Z,12.20
2018-07-25T15:37:33.654Z,11.00
2018-07-25T15:40:01.950Z,11.67
2018-07-25T15:42:30.204Z,11.83
2018-07-25T15:44:58.733Z,13.10
2018-07-25T15:47:27.006Z,15.13
2018-07-25T15:49:55.199Z,13.70
2018-07-25T15:52:23.520Z,11.80
2018-07-25T15:54:51.738Z,11.13
2018-07-25T15:57:19.949Z,10.67
2018-07-25T15:59:48.306Z,11.10
2018-07-25T16:02:16.543Z,12.50
2018-07-25T16:04:44.761Z,10.73
2018-07-25T16:07:19.495Z,10.60
2018-07-25T16:09:47.751Z,10.17
2018-07-25T16:12:15.933Z,9.60
2018-07-25T16:14:44.160Z,10.80
2018-07-25T16:17:12.506Z,10.20
2018-07-25T16:19:40.633Z,11.13
2018-07-25T16:22:08.849Z,11.30
2018-07-25T16:24:37.082Z,9.83
2018-07-25T16:27:05.414Z,11.63
2018-07-25T16:29:33.638Z,10.93
2018-07-25T16:32:01.884Z,10.80
2018-07-25T16:34:30.112Z,10.50
2018-07-25T16:36:58.330Z,8.70
2018-07-25T16:39:26.562Z,13.23
2018-07-25T16:41:54.797Z,7.93
2018-07-25T16:44:23.071Z,7.30
2018-07-25T16:46:51.316Z,8.67
2018-07-25T16:49:19.525Z,6.87
2018-07-25T16:51:47.746Z,11.03
2018-07-25T16:54:15.962Z,7.87
2018-07-25T16:56:44.192Z,9.60
2018-07-25T16:59:12.406Z,10.37
2018-07-25T17:01:40.632Z,7.90
2018-07-25T17:04:08.893Z,8.50
2018-07-25T17:06:37.391Z,11.33
2018-07-25T17:09:07.817Z,10.73
2018-07-25T17:11:36.030Z,8.40
2018-07-25T17:14:04.317Z,9.33
2018-07-25T17:16:32.548Z,11.60
2018-07-25T17:19:00.779Z,8.97
2018-07-25T17:21:29.005Z,9.23
2018-07-25T17:23:57.274Z,9.07
2018-07-25T17:26:26.339Z,9.70
2018-07-25T17:28:54.593Z,11.93
2018-07-25T17:31:22.859Z,11.80
2018-07-25T17:33:51.106Z,11.87
2018-07-25T17:36:20.071Z,11.60
2018-07-25T17:38:48.364Z,13.17
2018-07-25T17:41:16.627Z,12.73
2018-07-25T17:43:44.895Z,12.23
2018-07-25T17:46:13.112Z,13.87
2018-07-25T17:48:42.830Z,10.10
2018-07-25T17:51:11.599Z,11.53
2018-07-25T17:53:40.316Z,10.53
2018-07-25T17:56:08.728Z,11.70
2018-07-25T17:58:37.142Z,14.23
2018-07-25T18:01:05.616Z,15.03
2018-07-25T18:03:33.900Z,10.90
2018-07-25T18:06:02.127Z,11.03
2018-07-25T18:08:30.419Z,9.77
2018-07-25T18:10:59.450Z,9.93
2018-07-25T18:13:33.326Z,9.87
2018-07-25T18:16:01.553Z,11.40
2018-07-25T18:18:29.775Z,11.60
2018-07-25T18:20:58.405Z,11.90
2018-07-25T18:23:26.626Z,11.20
2018-07-25T18:25:54.853Z,11.23
2018-07-25T18:28:23.250Z,11.27
2018-07-25T18:30:51.470Z,9.93
2018-07-25T18:33:19.747Z,11.50
2018-07-25T18:35:48.024Z,9.27
2018-07-25T18:38:16.210Z,10.93
2018-07-25T18:40:44.435Z,11.33
2018-07-25T18:43:12.665Z,10.70
2018-07-25T18:45:40.891Z,10.40
2018-07-25T18:48:09.151Z,11.27
2018-07-25T18:50:37.382Z,11.30
2018-07-25T18:53:06.015Z,11.97
2018-07-25T18:55:34.249Z,11.87
2018-07-25T18:58:02.478Z,13.50
2018-07-25T19:00:30.703Z,13.27
2018-07-25T19:02:58.907Z,11.90
2018-07-25T19:05:30.141Z,11.47
2018-07-25T19:08:00.448Z,10.43
2018-07-25T19:10:28.747Z,11.40
2018-07-25T19:12:57.009Z,10.50
2018-07-25T19:15:32.349Z,11.03
2018-07-25T19:18:01.128Z,11.63
2018-07-25T19:20:29.588Z,11.80
2018-07-25T19:22:57.806Z,11.40
2018-07-25T19:25:26.020Z,11.87
2018-07-25T19:27:54.228Z,11.70
2018-07-25T19:30:22.470Z,11.13
2018-07-25T19:32:51.176Z,11.33
2018-07-25T19:35:19.451Z,11.20
2018-07-25T19:37:47.667Z,12.23
2018-07-25T19:40:15.894Z,11.60
2018-07-25T19:42:44.087Z,11.83
2018-07-25T19:45:12.295Z,12.00
2018-07-25T19:47:40.532Z,11.63
2018-07-25T19:50:08.757Z,12.13
2018-07-25T19:52:36.966Z,13.20
2018-07-25T19:55:05.229Z,11.57
2018-07-25T19:57:33.444Z,12.07
2018-07-25T20:00:01.658Z,12.97
2018-07-25T20:02:29.875Z,12.07
2018-07-25T20:04:58.095Z,10.87
2018-07-25T20:07:26.354Z,10.90
2018-07-25T20:09:54.539Z,11.67
2018-07-25T20:12:22.750Z,11.30
2018-07-25T20:14:56.218Z,11.70
2018-07-25T20:17:24.427Z,10.90
2018-07-25T20:19:52.858Z,11.80
2018-07-25T20:22:21.070Z,12.03
2018-07-25T20:24:49.339Z,10.83
2018-07-25T20:27:17.599Z,11.57
2018-07-25T20:29:45.826Z,11.83
2018-07-25T20:32:14.069Z,14.50
2018-07-25T20:34:42.344Z,12.10
2018-07-25T20:37:10.539Z,10.93
2018-07-25T20:39:38.747Z,12.13
2018-07-25T20:42:07.020Z,11.20
2018-07-25T20:44:35.211Z,11.70
2018-07-25T20:47:03.455Z,11.83
2018-07-25T20:49:31.660Z,12.73
2018-07-25T20:51:59.907Z,11.73
2018-07-25T20:54:28.120Z,11.87
2018-07-25T20:56:56.362Z,12.13
2018-07-25T20:59:24.579Z,12.87
2018-07-25T21:01:52.846Z,11.33
2018-07-25T21:04:21.055Z,11.37
2018-07-25T21:06:49.282Z,12.37
2018-07-25T21:09:17.516Z,12.60
2018-07-25T21:11:45.738Z,13.33
2018-07-25T21:14:13.961Z,12.70
2018-07-25T21:16:42.193Z,11.83
2018-07-25T21:19:10.403Z,11.77
2018-07-25T21:21:38.668Z,11.47
2018-07-25T21:24:06.843Z,10.93
2018-07-25T21:26:35.062Z,11.87
2018-07-25T21:29:03.261Z,12.20
2018-07-25T21:31:31.492Z,15.07
2018-07-25T21:34:00.699Z,12.47
2018-07-25T21:36:28.934Z,11.63
2018-07-25T21:38:57.154Z,12.90
2018-07-25T21:41:25.383Z,12.43
2018-07-25T21:43:53.590Z,13.00
2018-07-25T21:46:21.804Z,12.87
2018-07-25T21:48:50.034Z,13.03
2018-07-25T21:51:18.265Z,11.90
2018-07-25T21:53:46.502Z,13.30
2018-07-25T21:56:14.730Z,12.53
2018-07-25T21:58:42.946Z,12.87
2018-07-25T22:01:17.432Z,13.37
2018-07-25T22:03:45.865Z,12.40
2018-07-25T22:06:14.678Z,12.10
2018-07-25T22:08:42.887Z,12.27
2018-07-25T22:11:11.117Z,11.43
2018-07-25T22:13:43.559Z,12.50
2018-07-25T22:16:11.811Z,12.00
2018-07-25T22:18:40.067Z,11.73
2018-07-25T22:21:08.295Z,12.03
2018-07-25T22:23:36.518Z,12.60
2018-07-25T22:26:04.866Z,13.80
2018-07-25T22:28:33.105Z,12.37
2018-07-25T22:31:01.308Z,11.93
2018-07-25T22:33:29.513Z,13.40
2018-07-25T22:35:57.724Z,13.13
2018-07-25T22:38:25.975Z,13.67
2018-07-25T22:40:54.178Z,13.20
2018-07-25T22:43:22.441Z,14.17
2018-07-25T22:45:50.657Z,13.20
2018-07-25T22:48:18.876Z,13.70
2018-07-25T22:50:47.122Z,11.70
2018-07-25T22:53:15.405Z,13.03
2018-07-25T22:55:43.628Z,13.90
2018-07-25T22:58:11.858Z,16.87
2018-07-25T23:00:40.095Z,13.33
2018-07-25T23:03:08.479Z,13.17
2018-07-25T23:05:36.695Z,13.07
2018-07-25T23:08:04.943Z,12.90
2018-07-25T23:10:33.186Z,12.13
2018-07-25T23:13:01.417Z,12.53
2018-07-25T23:15:29.646Z,14.13
2018-07-25T23:17:57.865Z,13.50
2018-07-25T23:20:26.215Z,12.97
2018-07-25T23:22:58.603Z,11.97
2018-07-25T23:25:27.192Z,14.27
2018-07-25T23:27:56.403Z,11.67
2018-07-25T23:30:25.331Z,12.50
2018-07-25T23:32:53.572Z,11.87
2018-07-25T23:35:21.955Z,11.93
2018-07-25T23:37:50.783Z,11.43
2018-07-25T23:40:19.241Z,11.73
2018-07-25T23:42:47.880Z,11.17
2018-07-25T23:45:16.123Z,11.53
2018-07-25T23:47:44.337Z,11.20
2018-07-25T23:50:12.587Z,11.40
2018-07-25T23:52:40.826Z,11.97
2018-07-25T23:55:09.424Z,11.07
2018-07-25T23:57:37.631Z,10.87
